Time;durP1;ratioP1;P1;durP2;ratioP2;P2;SDS_P1;SDS_P2;PMS_P1;PMS_P2;Temp;Humidity;BMP_temperature;BMP_pressure;BME280_temperature;BME280_humidity;BME280_pressure;Samples;Min_cycle;Max_cycle;Signal;HPM_P1;HPM_P2
2023/06/09 00:00:47;;;;;;;7.60;5.78;;;487.30;2380.80;;;;;;5053701;28;20036;-82
2023/06/09 00:03:16;;;;;;;14.05;6.38;;;512.00;2380.80;;;;;;5053721;28;20523;-82
2023/06/09 00:05:42;;;;;;;10.82;6.88;;;487.30;2380.80;;;;;;5053086;28;20060;-82
2023/06/09 00:08:08;;;;;;;12.93;6.72;;;487.30;2380.80;;;;;;5053496;28;20083;-82
2023/06/09 00:10:34;;;;;;;8.65;6.43;;;487.30;2380.80;;;;;;5053676;28;20061;-80
2023/06/09 00:13:00;;;;;;;9.98;6.57;;;512.00;2380.80;;;;;;5053462;28;20119;-83
2023/06/09 00:15:26;;;;;;;8.73;6.22;;;512.00;2380.80;;;;;;5055095;28;20035;-83
2023/06/09 00:17:53;;;;;;;10.95;6.00;;;487.30;2380.80;;;;;;5053646;28;20129;-84
2023/06/09 00:20:20;;;;;;;11.45;7.35;;;487.30;2380.80;;;;;;5054768;28;20025;-84
2023/06/09 00:22:48;;;;;;;14.95;7.15;;;487.30;2380.80;;;;;;5053465;28;20040;-84
2023/06/09 00:25:15;;;;;;;13.60;6.35;;;487.30;2380.80;;;;;;5053926;28;20021;-84
2023/06/09 00:27:45;;;;;;;11.98;7.43;;;487.30;2380.80;;;;;;5054900;28;20029;-85
2023/06/09 00:30:14;;;;;;;13.27;6.80;;;487.30;2380.80;;;;;;5053833;28;20036;-83
2023/06/09 00:32:42;;;;;;;13.63;7.38;;;487.20;2380.80;;;;;;5053834;28;20354;-85
2023/06/09 00:35:09;;;;;;;9.63;6.68;;;487.10;2380.80;;;;;;5055188;28;20028;-83
2023/06/09 00:37:35;;;;;;;13.30;7.45;;;487.10;2380.80;;;;;;5054610;28;20037;-82
2023/06/09 00:40:01;;;;;;;12.55;7.13;;;487.10;2380.80;;;;;;5054468;28;20029;-83
2023/06/09 00:42:27;;;;;;;9.85;7.03;;;487.20;2380.80;;;;;;5054346;28;20472;-82
2023/06/09 00:44:53;;;;;;;10.32;6.32;;;487.00;2380.80;;;;;;5054159;28;20033;-84
2023/06/09 00:47:19;;;;;;;11.38;6.75;;;487.00;2380.80;;;;;;5054274;28;20035;-83
2023/06/09 00:49:45;;;;;;;11.00;6.95;;;486.90;2380.80;;;;;;5054158;28;20071;-83
2023/06/09 00:52:11;;;;;;;10.05;6.70;;;487.00;2380.80;;;;;;5053711;28;20025;-82
2023/06/09 00:54:39;;;;;;;13.68;6.85;;;486.80;2380.80;;;;;;5052902;28;20032;-84
2023/06/09 00:57:07;;;;;;;13.48;7.32;;;486.90;2380.80;;;;;;5052965;28;20091;-84
2023/06/09 00:59:35;;;;;;;13.13;7.25;;;486.90;2380.80;;;;;;5053064;28;20027;-86
2023/06/09 01:02:00;;;;;;;11.27;7.07;;;486.80;2380.80;;;;;;5052879;28;20029;-84
2023/06/09 01:04:26;;;;;;;12.52;7.53;;;486.80;2380.80;;;;;;5052901;28;20036;-84
2023/06/09 01:07:20;;;;;;;13.77;8.10;;;486.80;2380.80;;;;;;5054272;28;20036;-85
2023/06/09 01:10:04;;;;;;;9.93;6.88;;;486.70;2380.80;;;;;;5053017;28;20078;-83
2023/06/09 01:12:42;;;;;;;10.40;7.78;;;486.70;2380.80;;;;;;5053113;28;20025;-84
2023/06/09 01:15:25;;;;;;;13.27;7.68;;;486.50;2380.80;;;;;;5053159;28;20025;-84
2023/06/09 01:17:55;;;;;;;14.48;7.85;;;486.60;2380.80;;;;;;5052221;28;20208;-85
2023/06/09 01:20:53;;;;;;;11.68;7.85;;;486.60;2380.80;;;;;;5053184;28;20024;-84
2023/06/09 01:23:51;;;;;;;11.55;7.45;;;486.70;2380.80;;;;;;5052534;28;20040;-85
2023/06/09 01:26:18;;;;;;;10.02;7.25;;;486.70;2380.80;;;;;;5052793;28;20033;-84
2023/06/09 01:28:46;;;;;;;14.32;7.57;;;486.70;2380.80;;;;;;5052865;28;20032;-84
2023/06/09 01:31:15;;;;;;;13.77;6.90;;;486.60;2380.80;;;;;;5052660;28;20049;-84
2023/06/09 01:33:42;;;;;;;9.55;6.88;;;486.60;2380.80;;;;;;5052955;28;20075;-85
2023/06/09 01:36:08;;;;;;;10.82;6.70;;;486.70;2380.80;;;;;;5053922;28;20029;-84
2023/06/09 01:38:34;;;;;;;13.55;7.00;;;486.60;2380.80;;;;;;5052617;28;20025;-85
2023/06/09 01:41:00;;;;;;;10.23;7.13;;;486.60;2380.80;;;;;;5052809;28;20028;-85
2023/06/09 01:43:26;;;;;;;13.50;7.15;;;486.50;2380.80;;;;;;5052572;28;20064;-85
2023/06/09 01:45:52;;;;;;;16.42;8.45;;;486.50;2380.80;;;;;;5052570;28;20025;-83
2023/06/09 01:48:22;;;;;;;12.23;7.47;;;486.50;2380.80;;;;;;5051729;28;20645;-84
2023/06/09 01:51:03;;;;;;;10.80;7.18;;;486.50;2380.80;;;;;;5052549;28;20021;-84
2023/06/09 01:53:34;;;;;;;12.88;8.05;;;486.50;2380.80;;;;;;5052656;28;20024;-84
2023/06/09 01:56:37;;;;;;;12.30;7.35;;;486.50;2380.80;;;;;;5052611;28;20121;-84
2023/06/09 01:59:08;;;;;;;12.40;7.15;;;486.50;2380.80;;;;;;5034626;28;20045;-85
2023/06/09 02:01:36;;;;;;;11.50;7.43;;;486.40;2380.80;;;;;;5051550;28;20041;-85
2023/06/09 02:04:05;;;;;;;10.70;8.00;;;461.70;2380.80;;;;;;5034914;28;20021;-84
2023/06/09 02:06:33;;;;;;;12.90;7.85;;;461.60;2380.80;;;;;;5034573;28;20552;-84
2023/06/09 02:09:00;;;;;;;15.05;8.43;;;461.70;2380.80;;;;;;5051535;28;20064;-84
2023/06/09 02:11:27;;;;;;;10.57;7.43;;;461.70;2380.80;;;;;;5034848;28;20412;-85
2023/06/09 02:13:53;;;;;;;11.10;7.13;;;461.70;2380.80;;;;;;5035078;28;20094;-85
2023/06/09 02:16:19;;;;;;;15.30;7.85;;;461.70;2380.80;;;;;;5033435;28;20048;-86
2023/06/09 02:18:45;;;;;;;13.90;8.15;;;461.70;2380.80;;;;;;5050838;28;20428;-85
2023/06/09 02:21:10;;;;;;;10.65;7.70;;;461.70;2380.80;;;;;;5034816;28;20045;-87
2023/06/09 02:23:39;;;;;;;10.02;7.22;;;461.70;2380.80;;;;;;5051567;28;20097;-86
2023/06/09 02:26:06;;;;;;;14.80;8.23;;;461.70;2380.80;;;;;;5034783;28;20365;-86
2023/06/09 02:28:32;;;;;;;9.07;7.57;;;461.60;2380.80;;;;;;5052274;28;20044;-86
2023/06/09 02:30:58;;;;;;;9.80;7.28;;;461.60;2380.80;;;;;;5054973;28;20118;-85
2023/06/09 02:33:25;;;;;;;11.65;8.45;;;461.50;2380.80;;;;;;5037580;28;20170;-85
2023/06/09 02:35:52;;;;;;;15.93;7.43;;;461.50;2380.80;;;;;;5052611;28;20025;-84
2023/06/09 02:38:17;;;;;;;14.57;7.90;;;461.50;2380.80;;;;;;5051543;28;20080;-84
2023/06/09 02:40:46;;;;;;;13.75;8.00;;;461.50;2380.80;;;;;;5035470;28;20026;-85
2023/06/09 02:43:12;;;;;;;10.18;8.13;;;461.50;2380.80;;;;;;5037242;28;20101;-84
2023/06/09 02:45:38;;;;;;;15.60;7.72;;;461.50;2380.80;;;;;;5035732;28;20025;-85
2023/06/09 02:48:04;;;;;;;15.30;8.75;;;461.40;2380.80;;;;;;5054519;28;20032;-84
2023/06/09 02:50:30;;;;;;;11.43;7.57;;;461.50;2380.80;;;;;;5036378;28;20034;-85
2023/06/09 02:52:56;;;;;;;14.18;9.52;;;461.50;2380.80;;;;;;5052489;28;20033;-84
2023/06/09 02:55:22;;;;;;;13.00;8.38;;;461.50;2380.80;;;;;;5037042;28;20025;-84
2023/06/09 02:57:48;;;;;;;13.23;8.43;;;461.40;2380.80;;;;;;5052129;28;20029;-84
2023/06/09 03:00:15;;;;;;;12.88;9.45;;;461.20;2380.80;;;;;;5052322;28;20079;-84
2023/06/09 03:02:46;;;;;;;14.07;9.25;;;461.10;2380.80;;;;;;5035561;28;20025;-84
2023/06/09 03:05:12;;;;;;;10.98;8.32;;;461.00;2380.80;;;;;;5051869;28;20053;-85
2023/06/09 03:07:38;;;;;;;14.70;9.32;;;461.10;2380.80;;;;;;5051856;28;20389;-84
2023/06/09 03:10:07;;;;;;;11.40;7.93;;;461.20;2380.80;;;;;;5052150;28;20021;-85
2023/06/09 03:12:33;;;;;;;17.02;8.57;;;461.20;2380.80;;;;;;5051914;28;20021;-84
2023/06/09 03:14:59;;;;;;;17.88;8.93;;;461.20;2380.80;;;;;;5051911;28;20029;-84
2023/06/09 03:17:25;;;;;;;14.63;10.23;;;461.20;2380.80;;;;;;5036423;28;20042;-84
2023/06/09 03:19:51;;;;;;;21.42;10.77;;;461.20;2380.80;;;;;;5035475;28;20025;-84
2023/06/09 03:22:17;;;;;;;15.95;11.27;;;461.10;2380.80;;;;;;5041256;28;20036;-85
2023/06/09 03:24:44;;;;;;;23.52;12.30;;;461.20;2380.80;;;;;;5047906;28;20025;-84
2023/06/09 03:27:10;;;;;;;24.35;11.98;;;461.20;2380.80;;;;;;5054731;28;20052;-84
2023/06/09 03:29:36;;;;;;;31.08;14.07;;;461.20;2380.80;;;;;;5055770;28;20163;-84
2023/06/09 03:32:02;;;;;;;23.60;13.48;;;461.20;2380.80;;;;;;5054745;28;20440;-85
2023/06/09 03:34:29;;;;;;;27.42;13.70;;;461.20;2380.80;;;;;;5054860;28;20062;-84
2023/06/09 03:36:55;;;;;;;26.40;13.48;;;461.20;2380.80;;;;;;5055809;28;20033;-85
2023/06/09 03:39:21;;;;;;;20.88;12.95;;;461.20;2380.80;;;;;;5054213;28;20028;-84
2023/06/09 03:41:47;;;;;;;31.67;13.70;;;461.20;2380.80;;;;;;5054640;28;20029;-85
2023/06/09 03:44:13;;;;;;;24.27;12.32;;;461.20;2380.80;;;;;;5055519;28;20021;-84
2023/06/09 03:46:38;;;;;;;26.70;15.15;;;461.20;2380.80;;;;;;5054381;28;20020;-83
2023/06/09 03:49:04;;;;;;;18.38;11.55;;;461.10;2380.80;;;;;;5054574;28;20032;-86
2023/06/09 03:51:30;;;;;;;14.13;10.10;;;461.00;2380.80;;;;;;5054262;28;20120;-84
2023/06/09 03:53:56;;;;;;;16.27;10.43;;;461.00;2380.80;;;;;;5054289;28;20397;-86
2023/06/09 03:56:22;;;;;;;18.33;9.90;;;461.10;2380.80;;;;;;5054120;28;20025;-84
2023/06/09 03:58:48;;;;;;;22.73;10.77;;;461.00;2380.80;;;;;;5070860;28;20469;-85
2023/06/09 04:01:17;;;;;;;20.25;10.00;;;461.00;2380.80;;;;;;5054038;28;20021;-85
2023/06/09 04:03:43;;;;;;;13.80;9.60;;;461.00;2380.80;;;;;;5054015;28;20036;-84
2023/06/09 04:06:08;;;;;;;17.00;10.38;;;460.90;2380.80;;;;;;5070829;28;20049;-86
2023/06/09 04:08:34;;;;;;;16.05;10.80;;;460.90;2380.80;;;;;;5055262;28;20028;-84
2023/06/09 04:11:00;;;;;;;22.25;11.95;;;460.90;2380.80;;;;;;5053546;28;20086;-84
2023/06/09 04:13:26;;;;;;;15.90;10.90;;;460.90;2380.80;;;;;;5053767;28;20029;-84
2023/06/09 04:15:52;;;;;;;17.95;10.45;;;460.90;2380.80;;;;;;5055163;28;20056;-85
2023/06/09 04:18:19;;;;;;;14.10;10.57;;;460.90;2380.80;;;;;;5053600;28;20059;-85
2023/06/09 04:20:44;;;;;;;16.13;10.23;;;461.00;2380.80;;;;;;5053888;28;20028;-85
2023/06/09 04:23:10;;;;;;;14.23;9.63;;;461.10;2380.80;;;;;;5053829;28;20028;-84
2023/06/09 04:25:36;;;;;;;12.95;9.80;;;461.00;2380.80;;;;;;5070221;28;20496;-84
2023/06/09 04:28:03;;;;;;;15.32;9.20;;;461.10;2380.80;;;;;;5054789;28;20064;-85
2023/06/09 04:30:30;;;;;;;14.15;9.57;;;461.10;2380.80;;;;;;5070259;28;20055;-85
2023/06/09 04:33:01;;;;;;;15.00;9.68;;;461.00;2380.80;;;;;;5069718;28;20025;-85
2023/06/09 04:35:27;;;;;;;14.82;9.57;;;461.10;2380.80;;;;;;5054769;28;20029;-85
2023/06/09 04:37:53;;;;;;;15.70;9.43;;;461.10;2380.80;;;;;;5070009;28;20159;-85
2023/06/09 04:40:23;;;;;;;16.65;9.32;;;461.10;2380.80;;;;;;5070260;28;20060;-84
2023/06/09 04:42:57;;;;;;;17.95;10.55;;;461.00;2380.80;;;;;;5054747;28;20029;-85
2023/06/09 04:45:33;;;;;;;14.98;10.25;;;460.90;2380.80;;;;;;5053428;28;20036;-86
2023/06/09 04:48:02;;;;;;;15.23;10.05;;;461.20;2380.80;;;;;;5053472;28;20029;-84
2023/06/09 04:50:29;;;;;;;13.07;9.18;;;461.20;2380.80;;;;;;5053152;28;20083;-85
2023/06/09 04:52:57;;;;;;;18.42;9.13;;;461.20;2380.80;;;;;;5069614;28;20417;-84
2023/06/09 04:55:25;;;;;;;11.65;8.70;;;461.40;2380.80;;;;;;5070312;28;20052;-88
2023/06/09 04:57:56;;;;;;;15.32;8.43;;;461.40;2380.80;;;;;;5070241;28;20083;-85
2023/06/09 05:00:23;;;;;;;12.95;7.80;;;461.20;2380.80;;;;;;5070082;28;20032;-86
2023/06/09 05:02:51;;;;;;;9.05;7.85;;;461.20;2380.80;;;;;;5070122;28;20111;-85
2023/06/09 05:05:17;;;;;;;15.10;7.70;;;461.20;2380.80;;;;;;5069483;28;20075;-86
2023/06/09 05:07:42;;;;;;;11.98;7.22;;;461.30;2380.80;;;;;;5070121;28;20029;-86
2023/06/09 05:10:09;;;;;;;9.90;6.80;;;461.40;2380.80;;;;;;5070006;28;20028;-87
2023/06/09 05:12:39;;;;;;;10.20;6.88;;;461.40;2380.80;;;;;;5070093;28;20524;-86
2023/06/09 05:15:06;;;;;;;12.57;8.50;;;461.50;2380.80;;;;;;5069999;28;20475;-86
2023/06/09 05:17:33;;;;;;;14.35;7.65;;;461.50;2380.80;;;;;;5070014;28;20060;-86
2023/06/09 05:19:59;;;;;;;15.13;7.25;;;461.60;2380.80;;;;;;5054592;28;20025;-86
2023/06/09 05:22:25;;;;;;;14.77;7.43;;;461.70;2380.80;;;;;;5069557;28;20029;-86
2023/06/09 05:24:51;;;;;;;12.13;8.18;;;461.70;2380.80;;;;;;5054279;28;20037;-88
2023/06/09 05:27:17;;;;;;;18.67;7.63;;;461.70;2380.80;;;;;;5069752;28;20493;-87
2023/06/09 05:29:43;;;;;;;14.85;7.30;;;486.40;2380.80;;;;;;5069619;28;20171;-86
2023/06/09 05:32:09;;;;;;;16.25;8.30;;;486.40;2380.80;;;;;;5069887;28;20029;-86
2023/06/09 05:34:35;;;;;;;9.35;8.25;;;486.50;2380.80;;;;;;5069721;28;20032;-86
2023/06/09 05:37:02;;;;;;;14.38;7.88;;;486.50;2380.80;;;;;;5069603;28;20037;-86
2023/06/09 05:39:28;;;;;;;11.95;8.15;;;486.70;2380.80;;;;;;5069850;28;20021;-86
2023/06/09 05:41:54;;;;;;;11.77;7.70;;;486.70;2380.80;;;;;;5069763;28;20380;-87
2023/06/09 05:44:19;;;;;;;10.48;7.75;;;486.70;2380.80;;;;;;5069818;28;20057;-87
2023/06/09 05:46:45;;;;;;;11.40;7.93;;;486.80;2380.80;;;;;;5070041;28;20477;-87
2023/06/09 05:49:11;;;;;;;9.68;7.20;;;486.80;2380.80;;;;;;5069659;28;20025;-87
2023/06/09 05:51:37;;;;;;;11.18;7.00;;;487.00;2380.80;;;;;;5069967;28;20029;-86
2023/06/09 05:54:03;;;;;;;10.20;6.97;;;487.10;2380.80;;;;;;5069676;28;20453;-87
2023/06/09 05:56:29;;;;;;;10.07;7.15;;;512.20;2380.80;;;;;;5069411;28;20393;-87
2023/06/09 05:59:03;;;;;;;12.23;6.80;;;487.30;2380.80;;;;;;5069532;28;20036;-87
2023/06/09 06:01:32;;;;;;;11.90;7.03;;;512.00;2380.80;;;;;;5069740;28;20029;-86
2023/06/09 06:03:59;;;;;;;11.00;7.85;;;512.20;2380.80;;;;;;5072877;28;20465;-85
2023/06/09 06:06:25;;;;;;;18.33;7.30;;;512.40;2380.80;;;;;;5073303;28;20481;-84
2023/06/09 06:08:51;;;;;;;9.65;7.22;;;512.40;2380.80;;;;;;5073247;28;20167;-85
2023/06/09 06:11:17;;;;;;;9.73;6.47;;;512.50;2380.80;;;;;;5073111;28;20067;-86
2023/06/09 06:13:43;;;;;;;10.48;6.47;;;512.80;2380.80;;;;;;5073488;28;20025;-84
2023/06/09 06:16:09;;;;;;;15.57;6.88;;;512.90;2380.80;;;;;;5065821;28;20629;-84
2023/06/09 06:18:34;;;;;;;12.10;7.07;;;537.60;2406.40;;;;;;5052817;28;20033;-84
2023/06/09 06:21:00;;;;;;;11.88;6.65;;;537.80;2406.40;;;;;;5052887;28;20025;-84
2023/06/09 06:23:26;;;;;;;13.20;6.70;;;537.90;2406.40;;;;;;5052999;28;20037;-84
2023/06/09 06:25:52;;;;;;;9.13;6.68;;;538.00;2406.40;;;;;;5053133;28;20113;-85
2023/06/09 06:28:19;;;;;;;13.52;7.15;;;538.00;2406.40;;;;;;5053021;28;20037;-84
2023/06/09 06:30:45;;;;;;;13.38;7.80;;;537.90;2406.40;;;;;;5051524;28;20064;-85
2023/06/09 06:33:11;;;;;;;7.97;6.43;;;538.00;2406.40;;;;;;5055995;28;20025;-84
2023/06/09 06:35:37;;;;;;;9.00;7.13;;;538.20;2406.40;;;;;;5057198;28;20035;-84
2023/06/09 06:38:03;;;;;;;9.40;6.13;;;538.30;2406.40;;;;;;5055801;28;20457;-84
2023/06/09 06:40:29;;;;;;;12.85;6.90;;;538.40;2406.40;;;;;;5055855;28;20025;-85
2023/06/09 06:42:55;;;;;;;11.27;6.88;;;563.20;2432.00;;;;;;5055885;28;20078;-85
2023/06/09 06:45:21;;;;;;;9.23;6.80;;;563.30;2432.00;;;;;;5055687;28;20116;-84
2023/06/09 06:47:49;;;;;;;8.18;5.93;;;563.20;2432.00;;;;;;5055824;28;20473;-84
2023/06/09 06:50:15;;;;;;;12.15;7.20;;;563.20;2432.00;;;;;;5055932;28;20373;-87
2023/06/09 06:52:41;;;;;;;10.95;5.60;;;563.20;2432.00;;;;;;5057377;28;20052;-84
2023/06/09 06:55:08;;;;;;;13.00;6.93;;;563.40;2432.00;;;;;;5056610;28;20029;-83
2023/06/09 06:57:38;;;;;;;9.25;5.53;;;563.50;2432.00;;;;;;5047952;28;20041;-83
2023/06/09 07:00:14;;;;;;;7.38;6.13;;;563.50;2432.00;;;;;;5046821;28;20053;-84
2023/06/09 07:02:47;;;;;;;10.73;6.65;;;563.40;2432.00;;;;;;5068033;28;20036;-81
2023/06/09 07:05:13;;;;;;;;;;;563.60;2432.00;;;;;;5054373;28;20508;-81
2023/06/09 07:07:39;;;;;;;12.05;7.63;;;563.80;2432.00;;;;;;5071188;28;19934;-81
2023/06/09 07:10:07;;;;;;;8.52;7.00;;;563.90;2432.00;;;;;;5071228;28;20035;-82
2023/06/09 07:12:33;;;;;;;12.73;6.45;;;563.90;2432.00;;;;;;5061734;28;20395;-82
2023/06/09 07:14:59;;;;;;;8.85;6.07;;;564.00;2432.00;;;;;;5035182;28;20457;-82
2023/06/09 07:17:25;;;;;;;8.38;6.18;;;563.90;2432.00;;;;;;5053106;28;20037;-81
2023/06/09 07:19:51;;;;;;;7.95;5.38;;;564.00;2432.00;;;;;;5070605;28;20021;-82
2023/06/09 07:22:16;;;;;;;9.05;5.97;;;588.80;2432.00;;;;;;5065617;28;20025;-83
2023/06/09 07:24:42;;;;;;;9.23;5.20;;;589.00;2432.00;;;;;;5046704;28;20025;-82
2023/06/09 07:27:08;;;;;;;10.93;6.07;;;589.10;2432.00;;;;;;5053764;28;20028;-83
2023/06/09 07:29:35;;;;;;;8.25;5.45;;;589.30;2432.00;;;;;;5042645;28;20029;-83
2023/06/09 07:32:02;;;;;;;11.27;6.45;;;589.40;2432.00;;;;;;5052506;28;20021;-84
2023/06/09 07:34:29;;;;;;;7.03;5.53;;;614.40;2432.00;;;;;;5069961;28;20025;-84
2023/06/09 07:36:55;;;;;;;10.82;5.32;;;589.50;2432.00;;;;;;5070686;28;20033;-83
2023/06/09 07:39:21;;;;;;;10.32;5.28;;;589.70;2432.00;;;;;;5055254;28;20354;-84
2023/06/09 07:41:47;;;;;;;8.23;5.35;;;589.70;2432.00;;;;;;5070155;28;20477;-84
2023/06/09 07:44:12;;;;;;;8.80;5.40;;;589.70;2432.00;;;;;;5053898;28;20044;-84
2023/06/09 07:46:38;;;;;;;11.40;6.18;;;614.60;2432.00;;;;;;5070698;28;20380;-84
2023/06/09 07:49:04;;;;;;;10.57;6.65;;;614.70;2432.00;;;;;;5053497;28;20028;-84
2023/06/09 07:51:30;;;;;;;12.93;6.10;;;614.90;2432.00;;;;;;5054005;28;20025;-85
2023/06/09 07:53:56;;;;;;;10.90;6.55;;;614.90;2432.00;;;;;;5054976;28;20028;-86
2023/06/09 07:56:22;;;;;;;9.52;6.85;;;615.00;2432.00;;;;;;5058142;28;20022;-85
2023/06/09 07:58:49;;;;;;;8.10;6.38;;;615.10;2432.00;;;;;;5052281;28;20025;-85
2023/06/09 08:01:15;;;;;;;12.18;6.00;;;615.20;2432.00;;;;;;5070157;28;20040;-85
2023/06/09 08:03:41;;;;;;;9.77;6.35;;;615.00;2432.00;;;;;;5070473;28;20059;-83
2023/06/09 08:06:08;;;;;;;10.30;5.72;;;615.00;2432.00;;;;;;5070124;28;20631;-84
2023/06/09 08:08:34;;;;;;;11.55;6.85;;;614.80;2432.00;;;;;;5070150;28;20029;-84
2023/06/09 08:11:00;;;;;;;13.00;6.97;;;614.90;2432.00;;;;;;5054657;28;20100;-85
2023/06/09 08:13:28;;;;;;;13.32;7.40;;;615.10;2432.00;;;;;;5054703;28;20101;-84
2023/06/09 08:15:53;;;;;;;9.80;6.45;;;615.00;2432.00;;;;;;5070078;28;20040;-84
2023/06/09 08:18:20;;;;;;;10.70;6.18;;;615.30;2432.00;;;;;;5070203;28;20384;-84
2023/06/09 08:20:46;;;;;;;12.50;6.18;;;615.30;2432.00;;;;;;5054440;28;20018;-84
2023/06/09 08:23:12;;;;;;;12.15;6.53;;;615.30;2432.00;;;;;;5070144;28;20036;-85
2023/06/09 08:25:37;;;;;;;9.50;8.07;;;615.30;2432.00;;;;;;5069682;28;20086;-85
2023/06/09 08:28:03;;;;;;;9.35;7.10;;;640.10;2432.00;;;;;;5069717;28;20060;-84
2023/06/09 08:30:29;;;;;;;13.40;6.68;;;640.60;2432.00;;;;;;5069684;28;20036;-84
2023/06/09 08:32:55;;;;;;;9.05;6.72;;;640.60;2432.00;;;;;;5054456;28;20515;-84
2023/06/09 08:35:21;;;;;;;9.05;6.60;;;;;;;;;;5070011;28;20064;-84
2023/06/09 08:37:47;;;;;;;12.43;7.07;;;665.60;2432.00;;;;;;5069384;28;20135;-84
2023/06/09 08:40:13;;;;;;;10.85;6.53;;;665.70;2432.00;;;;;;5070171;28;20087;-84
2023/06/09 08:42:40;;;;;;;9.52;6.43;;;665.90;2432.00;;;;;;5054372;28;20021;-86
2023/06/09 08:45:07;;;;;;;7.97;6.13;;;665.60;2432.00;;;;;;5069317;28;20025;-83
2023/06/09 08:47:33;;;;;;;8.55;6.90;;;665.70;2432.00;;;;;;5069981;28;20033;-84
2023/06/09 08:50:02;;;;;;;10.30;6.32;;;665.90;2432.00;;;;;;5069954;28;20090;-84
2023/06/09 08:52:29;;;;;;;10.23;7.15;;;640.90;2432.00;;;;;;5069747;28;20079;-84
2023/06/09 08:54:57;;;;;;;11.52;7.35;;;665.70;2432.00;;;;;;5069677;28;20114;-84
2023/06/09 08:57:23;;;;;;;9.07;6.30;;;665.90;2432.00;;;;;;5069482;28;20092;-84
2023/06/09 08:59:52;;;;;;;6.55;5.57;;;666.10;2432.00;;;;;;5069551;28;20029;-84
2023/06/09 09:02:18;;;;;;;9.98;5.53;;;666.30;2432.00;;;;;;5069716;28;20035;-83
2023/06/09 09:04:44;;;;;;;10.55;5.65;;;666.50;2432.00;;;;;;5068063;28;20139;-83
2023/06/09 09:07:11;;;;;;;6.97;5.97;;;666.30;2432.00;;;;;;5055514;28;20035;-83
2023/06/09 09:09:41;;;;;;;10.80;6.40;;;666.00;2432.00;;;;;;5070073;28;20029;-84
2023/06/09 09:12:13;;;;;;;9.82;5.65;;;666.30;2432.00;;;;;;5069409;28;20496;-84
2023/06/09 09:14:43;;;;;;;11.10;6.68;;;691.20;2432.00;;;;;;5069797;28;20071;-84
2023/06/09 09:17:13;;;;;;;9.07;6.57;;;691.30;2432.00;;;;;;5068189;28;20037;-85
2023/06/09 09:19:42;;;;;;;8.18;5.72;;;691.60;2432.00;;;;;;5068626;28;20034;-85
2023/06/09 09:22:09;;;;;;;8.60;6.70;;;691.20;2432.00;;;;;;5069608;28;20087;-83
2023/06/09 09:24:35;;;;;;;12.32;6.72;;;691.50;2432.00;;;;;;5054072;28;20579;-84
2023/06/09 09:27:04;;;;;;;12.48;6.10;;;691.40;2432.00;;;;;;5053395;28;20040;-81
2023/06/09 09:29:38;;;;;;;11.90;6.95;;;691.40;2432.00;;;;;;5053630;28;20017;-83
2023/06/09 09:32:05;;;;;;;10.10;5.50;;;691.70;2432.00;;;;;;5069258;28;20063;-80
2023/06/09 09:34:32;;;;;;;10.55;6.10;;;691.90;2432.00;;;;;;5068712;28;20025;-79
2023/06/09 09:36:58;;;;;;;9.52;5.68;;;716.80;2432.00;;;;;;5068697;28;20051;-80
2023/06/09 09:39:24;;;;;;;7.35;5.55;;;;;;;;;;5066341;28;20025;-82
2023/06/09 09:42:08;;;;;;;9.70;5.40;;;717.40;2432.00;;;;;;5068712;28;20075;-81
2023/06/09 09:44:50;;;;;;;10.43;5.20;;;717.30;2432.00;;;;;;5062219;28;20021;-83
2023/06/09 09:47:18;;;;;;;8.93;6.65;;;717.10;2432.00;;;;;;5062926;28;20040;-83
2023/06/09 09:49:53;;;;;;;11.43;5.82;;;692.10;2432.00;;;;;;5039658;28;20025;-83
2023/06/09 09:52:29;;;;;;;11.90;6.35;;;716.80;2432.00;;;;;;5061642;28;20028;-82
2023/06/09 09:54:56;;;;;;;13.10;6.68;;;717.10;2432.00;;;;;;5055288;28;20461;-82
2023/06/09 09:57:24;;;;;;;10.25;5.80;;;717.40;2432.00;;;;;;5073420;28;20033;-83
2023/06/09 09:59:52;;;;;;;10.68;6.50;;;717.50;2432.00;;;;;;5056476;28;20559;-82
2023/06/09 10:02:23;;;;;;;9.48;5.82;;;742.40;2432.00;;;;;;5055829;28;20052;-83
2023/06/09 10:04:51;;;;;;;10.82;5.88;;;742.50;2432.00;;;;;;5059023;28;20049;-80
2023/06/09 10:07:24;;;;;;;9.38;5.72;;;742.40;2432.00;;;;;;5057170;28;20028;-84
2023/06/09 10:09:54;;;;;;;8.43;5.43;;;742.50;2432.00;;;;;;5055890;28;20048;-82
2023/06/09 10:12:20;;;;;;;6.88;4.72;;;742.80;2432.00;;;;;;5067448;28;20030;-82
2023/06/09 10:14:50;;;;;;;7.55;6.28;;;742.90;2432.00;;;;;;5047976;28;20028;-83
2023/06/09 10:17:21;;;;;;;8.13;6.03;;;742.90;2432.00;;;;;;5057219;28;20029;-80
2023/06/09 10:19:51;;;;;;;9.47;6.23;;;;;;;;;;5056040;28;20068;-83
2023/06/09 10:22:18;;;;;;;6.70;5.53;;;768.10;2432.00;;;;;;5060102;28;20028;-82
2023/06/09 10:24:46;;;;;;;8.25;5.65;;;768.10;2432.00;;;;;;5058906;28;20029;-85
2023/06/09 10:27:14;;;;;;;9.27;5.47;;;743.30;2406.40;;;;;;5063038;28;20128;-84
2023/06/09 10:29:40;;;;;;;9.13;5.78;;;743.10;2432.00;;;;;;5066751;28;20040;-84
2023/06/09 10:32:09;;;;;;;10.40;5.40;;;768.00;2432.00;;;;;;5056883;28;20107;-86
2023/06/09 10:34:37;;;;;;;7.47;5.05;;;768.00;2406.40;;;;;;5055407;28;20025;-87
2023/06/09 10:37:04;;;;;;;7.68;5.32;;;768.30;2432.00;;;;;;5056632;28;20389;-86
2023/06/09 10:40:12;;;;;;;9.85;6.20;;;768.50;2355.20;;;;;;5071722;28;20078;-85
2023/06/09 10:43:19;;;;;;;10.60;5.43;;;768.10;2380.80;;;;;;5054773;28;20024;-85
2023/06/09 10:45:53;;;;;;;10.65;6.47;;;743.20;2406.40;;;;;;5028704;28;20057;-83
2023/06/09 10:48:44;;;;;;;9.05;5.57;;;768.20;2380.80;;;;;;5062967;28;20391;-84
2023/06/09 10:51:30;;;;;;;9.93;5.47;;;768.40;2380.80;;;;;;5057823;28;20078;-83
2023/06/09 10:54:17;;;;;;;8.60;5.10;;;768.40;2304.00;;;;;;5074530;28;20024;-82
2023/06/09 10:56:54;;;;;;;8.43;5.47;;;768.00;2304.00;;;;;;5066502;28;20035;-82
2023/06/09 10:59:26;;;;;;;7.25;5.05;;;768.40;2355.20;;;;;;5057363;28;20127;-84
2023/06/09 11:02:03;;;;;;;13.15;5.70;;;768.60;2304.00;;;;;;5071320;28;20028;-85
2023/06/09 11:04:43;;;;;;;6.05;4.57;;;768.70;2252.80;;;;;;5055755;28;20028;-85
2023/06/09 11:07:29;;;;;;;7.30;4.72;;;793.60;2252.80;;;;;;5070724;28;20036;-85
2023/06/09 11:09:57;;;;;;;8.13;4.45;;;768.30;2201.60;;;;;;5071990;28;20475;-85
2023/06/09 11:12:38;;;;;;;15.02;5.60;;;768.10;2252.80;;;;;;5057577;28;20029;-84
2023/06/09 11:15:09;;;;;;;9.95;4.50;;;768.10;2278.40;;;;;;5061826;28;20048;-83
2023/06/09 11:17:37;;;;;;;13.50;8.13;;;768.10;2329.60;;;;;;5062146;28;20460;-83
2023/06/09 11:20:06;;;;;;;38.97;19.73;;;768.10;2252.80;;;;;;5074017;28;20108;-87
2023/06/09 11:22:59;;;;;;;14.40;8.85;;;768.10;2304.00;;;;;;5054832;28;20048;-86
2023/06/09 11:25:26;;;;;;;9.57;5.72;;;768.10;2329.60;;;;;;5057946;28;20028;-84
2023/06/09 11:27:55;;;;;;;8.40;6.43;;;768.10;2278.40;;;;;;5069872;28;20028;-85
2023/06/09 11:30:29;;;;;;;9.13;6.00;;;768.10;2329.60;;;;;;5059837;28;20479;-84
2023/06/09 11:33:01;;;;;;;11.38;6.47;;;743.30;2278.40;;;;;;5056774;28;20380;-85
2023/06/09 11:35:30;;;;;;;9.00;7.65;;;768.10;2355.20;;;;;;5071088;28;20021;-81
2023/06/09 11:38:00;;;;;;;9.10;5.72;;;768.10;2252.80;;;;;;5065688;28;20392;-81
2023/06/09 11:40:27;;;;;;;11.00;7.55;;;743.10;2252.80;;;;;;5067541;28;20494;-85
2023/06/09 11:42:54;;;;;;;11.02;9.63;;;743.10;2252.80;;;;;;5070700;28;20028;-82
2023/06/09 11:45:23;;;;;;;12.77;7.70;;;743.10;2278.40;;;;;;5069975;28;20027;-80
2023/06/09 11:47:49;;;;;;;14.65;8.40;;;743.00;2304.00;;;;;;5070133;28;20040;-85
2023/06/09 11:50:16;;;;;;;15.35;12.07;;;743.10;2329.60;;;;;;5053923;28;20029;-82
2023/06/09 11:52:44;;;;;;;11.60;8.38;;;768.10;2304.00;;;;;;5064570;28;20032;-82
2023/06/09 11:55:12;;;;;;;14.38;12.68;;;768.50;2278.40;;;;;;5072396;28;20431;-81
2023/06/09 11:57:38;;;;;;;18.48;13.77;;;768.70;2252.80;;;;;;5058557;28;20036;-80
2023/06/09 12:00:12;;;;;;;20.20;14.40;;;793.60;2201.60;;;;;;5062271;28;20457;-82
2023/06/09 12:02:39;;;;;;;24.65;20.13;;;793.80;2176.00;;;;;;5064514;28;20024;-83
2023/06/09 12:05:12;;;;;;;19.45;16.45;;;794.00;2176.00;;;;;;5062372;28;20090;-82
2023/06/09 12:07:40;;;;;;;13.73;11.45;;;793.70;2099.20;;;;;;5054361;28;20025;-82
2023/06/09 12:10:07;;;;;;;11.50;10.20;;;794.00;2099.20;;;;;;5063211;28;20033;-81
2023/06/09 12:12:49;;;;;;;9.25;7.13;;;793.70;2124.80;;;;;;5061036;28;20048;-83
2023/06/09 12:15:17;;;;;;;6.95;5.10;;;793.70;2073.60;;;;;;5058158;28;20025;-80
2023/06/09 12:17:44;;;;;;;8.10;5.68;;;768.90;2048.00;;;;;;5060687;28;20435;-81